< < Back
Terminal Aerodrome Forecast


Current Version              Previous Versions:   1  2  3  4  5  6  7  8  9  

Terminal Aerodrome Forecast

262
FTUS42 KGSP 250535
TAFAVL
TAF
KAVL 250535Z 2506/2606 31004KT P6SM SKC
     FM260000 32005KT P6SM SCT050=



Latest METAR

496
SAUS70 KWBC 251000 RRJ
MTRAVL
METAR KAVL 250954Z AUTO 00000KT 10SM CLR 06/03 A3007 RMK AO2 SLP173
T00610028


USA.gov is the U.S. government's official web portal to all federal, state and local government web resources and services.